sensor_id;sensor_type;location;lat;lon;timestamp;P1;durP1;ratioP1;P2;durP2;ratioP2
60908;SDS011;46780;48.128;-1.704;2023-07-16T00:01:04;31.85;;;10.38;;
60908;SDS011;46780;48.128;-1.704;2023-07-16T00:03:32;34.60;;;10.73;;
60908;SDS011;46780;48.128;-1.704;2023-07-16T00:06:00;36.30;;;11.50;;
60908;SDS011;46780;48.128;-1.704;2023-07-16T00:08:26;32.28;;;11.45;;
60908;SDS011;46780;48.128;-1.704;2023-07-16T00:10:52;31.33;;;11.63;;
60908;SDS011;46780;48.128;-1.704;2023-07-16T00:13:19;36.47;;;10.88;;
60908;SDS011;46780;48.128;-1.704;2023-07-16T00:15:45;31.05;;;10.32;;
60908;SDS011;46780;48.128;-1.704;2023-07-16T00:18:13;30.77;;;10.80;;
60908;SDS011;46780;48.128;-1.704;2023-07-16T00:20:40;33.53;;;10.40;;
60908;SDS011;46780;48.128;-1.704;2023-07-16T00:23:06;36.92;;;10.07;;
60908;SDS011;46780;48.128;-1.704;2023-07-16T00:25:32;34.60;;;10.60;;
60908;SDS011;46780;48.128;-1.704;2023-07-16T00:27:59;33.40;;;10.85;;
60908;SDS011;46780;48.128;-1.704;2023-07-16T00:30:25;32.40;;;9.80;;
60908;SDS011;46780;48.128;-1.704;2023-07-16T00:32:52;32.33;;;10.25;;
60908;SDS011;46780;48.128;-1.704;2023-07-16T00:35:20;33.95;;;10.38;;
60908;SDS011;46780;48.128;-1.704;2023-07-16T00:37:46;36.05;;;11.02;;
60908;SDS011;46780;48.128;-1.704;2023-07-16T00:40:12;33.25;;;11.05;;
60908;SDS011;46780;48.128;-1.704;2023-07-16T00:42:39;32.08;;;10.68;;
60908;SDS011;46780;48.128;-1.704;2023-07-16T00:45:08;38.72;;;11.20;;
60908;SDS011;46780;48.128;-1.704;2023-07-16T00:47:37;33.17;;;11.00;;
60908;SDS011;46780;48.128;-1.704;2023-07-16T00:50:04;32.42;;;10.57;;
60908;SDS011;46780;48.128;-1.704;2023-07-16T00:52:32;29.08;;;11.13;;
60908;SDS011;46780;48.128;-1.704;2023-07-16T00:54:59;34.00;;;10.07;;
60908;SDS011;46780;48.128;-1.704;2023-07-16T00:57:25;35.65;;;10.90;;
60908;SDS011;46780;48.128;-1.704;2023-07-16T00:59:52;30.63;;;10.30;;
60908;SDS011;46780;48.128;-1.704;2023-07-16T01:02:18;32.05;;;10.50;;
60908;SDS011;46780;48.128;-1.704;2023-07-16T01:04:45;34.80;;;10.85;;
60908;SDS011;46780;48.128;-1.704;2023-07-16T01:07:11;36.83;;;11.70;;
60908;SDS011;46780;48.128;-1.704;2023-07-16T01:09:42;36.17;;;10.55;;
60908;SDS011;46780;48.128;-1.704;2023-07-16T01:12:10;41.13;;;11.00;;
60908;SDS011;46780;48.128;-1.704;2023-07-16T01:14:38;39.10;;;10.85;;
60908;SDS011;46780;48.128;-1.704;2023-07-16T01:17:07;34.72;;;10.73;;
60908;SDS011;46780;48.128;-1.704;2023-07-16T01:19:33;42.88;;;11.27;;
60908;SDS011;46780;48.128;-1.704;2023-07-16T01:22:03;34.83;;;11.02;;
60908;SDS011;46780;48.128;-1.704;2023-07-16T01:28:01;34.65;;;11.18;;
60908;SDS011;46780;48.128;-1.704;2023-07-16T01:30:39;31.05;;;10.55;;
60908;SDS011;46780;48.128;-1.704;2023-07-16T01:33:09;34.03;;;10.60;;
60908;SDS011;46780;48.128;-1.704;2023-07-16T01:35:38;40.05;;;11.15;;
60908;SDS011;46780;48.128;-1.704;2023-07-16T01:38:06;35.63;;;10.75;;
60908;SDS011;46780;48.128;-1.704;2023-07-16T01:40:34;40.38;;;10.57;;
60908;SDS011;46780;48.128;-1.704;2023-07-16T01:43:01;37.30;;;10.40;;
60908;SDS011;46780;48.128;-1.704;2023-07-16T01:45:28;34.20;;;10.70;;
60908;SDS011;46780;48.128;-1.704;2023-07-16T01:47:59;31.92;;;10.90;;
60908;SDS011;46780;48.128;-1.704;2023-07-16T01:50:33;35.67;;;10.32;;
60908;SDS011;46780;48.128;-1.704;2023-07-16T01:53:00;41.90;;;10.52;;
60908;SDS011;46780;48.128;-1.704;2023-07-16T01:55:26;30.77;;;10.45;;
60908;SDS011;46780;48.128;-1.704;2023-07-16T01:57:53;39.83;;;10.63;;
60908;SDS011;46780;48.128;-1.704;2023-07-16T02:00:19;35.38;;;10.65;;
60908;SDS011;46780;48.128;-1.704;2023-07-16T02:02:46;33.97;;;10.75;;
60908;SDS011;46780;48.128;-1.704;2023-07-16T02:05:14;39.67;;;10.75;;
60908;SDS011;46780;48.128;-1.704;2023-07-16T02:07:41;40.55;;;11.77;;
60908;SDS011;46780;48.128;-1.704;2023-07-16T02:10:07;37.90;;;11.43;;
60908;SDS011;46780;48.128;-1.704;2023-07-16T02:12:34;37.63;;;11.35;;
60908;SDS011;46780;48.128;-1.704;2023-07-16T02:15:01;41.58;;;11.10;;
60908;SDS011;46780;48.128;-1.704;2023-07-16T02:17:27;38.47;;;11.15;;
60908;SDS011;46780;48.128;-1.704;2023-07-16T02:19:54;44.03;;;11.77;;
60908;SDS011;46780;48.128;-1.704;2023-07-16T02:22:22;39.97;;;11.35;;
60908;SDS011;46780;48.128;-1.704;2023-07-16T02:24:49;32.95;;;11.63;;
60908;SDS011;46780;48.128;-1.704;2023-07-16T02:27:16;39.38;;;12.27;;
60908;SDS011;46780;48.128;-1.704;2023-07-16T02:29:42;41.05;;;11.80;;
60908;SDS011;46780;48.128;-1.704;2023-07-16T02:32:09;42.08;;;12.05;;
60908;SDS011;46780;48.128;-1.704;2023-07-16T02:34:35;35.03;;;11.82;;
60908;SDS011;46780;48.128;-1.704;2023-07-16T02:37:02;40.08;;;11.60;;
60908;SDS011;46780;48.128;-1.704;2023-07-16T02:39:30;38.65;;;12.20;;
60908;SDS011;46780;48.128;-1.704;2023-07-16T02:41:57;37.03;;;11.32;;
60908;SDS011;46780;48.128;-1.704;2023-07-16T02:44:23;38.25;;;11.98;;
60908;SDS011;46780;48.128;-1.704;2023-07-16T02:46:50;41.78;;;12.02;;
60908;SDS011;46780;48.128;-1.704;2023-07-16T02:49:16;36.75;;;11.93;;
60908;SDS011;46780;48.128;-1.704;2023-07-16T02:51:43;36.20;;;11.65;;
60908;SDS011;46780;48.128;-1.704;2023-07-16T02:54:09;35.95;;;11.55;;
60908;SDS011;46780;48.128;-1.704;2023-07-16T02:56:37;41.85;;;12.52;;
60908;SDS011;46780;48.128;-1.704;2023-07-16T02:59:04;38.85;;;12.50;;
60908;SDS011;46780;48.128;-1.704;2023-07-16T03:01:30;37.25;;;12.93;;
60908;SDS011;46780;48.128;-1.704;2023-07-16T03:03:58;43.83;;;12.73;;
60908;SDS011;46780;48.128;-1.704;2023-07-16T03:06:26;42.22;;;12.45;;
60908;SDS011;46780;48.128;-1.704;2023-07-16T03:08:54;38.45;;;12.63;;
60908;SDS011;46780;48.128;-1.704;2023-07-16T03:11:21;44.10;;;12.52;;
60908;SDS011;46780;48.128;-1.704;2023-07-16T03:13:51;40.00;;;12.45;;
60908;SDS011;46780;48.128;-1.704;2023-07-16T03:16:19;40.03;;;13.13;;
60908;SDS011;46780;48.128;-1.704;2023-07-16T03:18:47;51.53;;;12.82;;
60908;SDS011;46780;48.128;-1.704;2023-07-16T03:21:15;38.03;;;12.52;;
60908;SDS011;46780;48.128;-1.704;2023-07-16T03:23:43;43.92;;;13.00;;
60908;SDS011;46780;48.128;-1.704;2023-07-16T03:26:12;40.58;;;12.55;;
60908;SDS011;46780;48.128;-1.704;2023-07-16T03:28:40;35.25;;;12.38;;
60908;SDS011;46780;48.128;-1.704;2023-07-16T03:31:10;40.50;;;12.23;;
60908;SDS011;46780;48.128;-1.704;2023-07-16T03:33:37;41.67;;;13.27;;
60908;SDS011;46780;48.128;-1.704;2023-07-16T03:36:06;42.45;;;13.27;;
60908;SDS011;46780;48.128;-1.704;2023-07-16T03:38:34;36.67;;;12.57;;
60908;SDS011;46780;48.128;-1.704;2023-07-16T03:41:01;42.30;;;12.98;;
60908;SDS011;46780;48.128;-1.704;2023-07-16T03:43:28;47.38;;;14.07;;
60908;SDS011;46780;48.128;-1.704;2023-07-16T03:45:55;43.65;;;14.05;;
60908;SDS011;46780;48.128;-1.704;2023-07-16T03:48:23;37.70;;;13.13;;
60908;SDS011;46780;48.128;-1.704;2023-07-16T03:50:49;46.58;;;13.43;;
60908;SDS011;46780;48.128;-1.704;2023-07-16T03:53:16;44.88;;;13.73;;
60908;SDS011;46780;48.128;-1.704;2023-07-16T03:55:43;40.47;;;14.38;;
60908;SDS011;46780;48.128;-1.704;2023-07-16T03:58:10;42.88;;;13.88;;
60908;SDS011;46780;48.128;-1.704;2023-07-16T04:00:36;41.50;;;14.38;;
60908;SDS011;46780;48.128;-1.704;2023-07-16T04:03:03;45.03;;;14.07;;
60908;SDS011;46780;48.128;-1.704;2023-07-16T04:05:31;46.13;;;14.20;;
60908;SDS011;46780;48.128;-1.704;2023-07-16T04:07:58;39.65;;;13.73;;
60908;SDS011;46780;48.128;-1.704;2023-07-16T04:10:25;42.75;;;14.23;;
60908;SDS011;46780;48.128;-1.704;2023-07-16T04:12:51;42.60;;;13.18;;
60908;SDS011;46780;48.128;-1.704;2023-07-16T04:15:18;40.63;;;13.50;;
60908;SDS011;46780;48.128;-1.704;2023-07-16T04:17:45;43.55;;;14.13;;
60908;SDS011;46780;48.128;-1.704;2023-07-16T04:20:12;43.22;;;13.70;;
60908;SDS011;46780;48.128;-1.704;2023-07-16T04:22:40;42.70;;;12.93;;
60908;SDS011;46780;48.128;-1.704;2023-07-16T04:25:07;45.97;;;13.73;;
60908;SDS011;46780;48.128;-1.704;2023-07-16T04:27:34;48.95;;;13.52;;
60908;SDS011;46780;48.128;-1.704;2023-07-16T04:30:01;39.42;;;13.45;;
60908;SDS011;46780;48.128;-1.704;2023-07-16T04:32:29;42.47;;;13.27;;
60908;SDS011;46780;48.128;-1.704;2023-07-16T04:34:56;45.65;;;13.65;;
60908;SDS011;46780;48.128;-1.704;2023-07-16T04:37:23;35.45;;;12.90;;
60908;SDS011;46780;48.128;-1.704;2023-07-16T04:39:51;35.20;;;13.07;;
60908;SDS011;46780;48.128;-1.704;2023-07-16T04:42:17;41.78;;;13.40;;
60908;SDS011;46780;48.128;-1.704;2023-07-16T04:44:44;41.30;;;13.27;;
60908;SDS011;46780;48.128;-1.704;2023-07-16T04:47:10;42.67;;;14.43;;
60908;SDS011;46780;48.128;-1.704;2023-07-16T04:49:37;43.40;;;14.10;;
60908;SDS011;46780;48.128;-1.704;2023-07-16T04:52:04;40.75;;;14.30;;
60908;SDS011;46780;48.128;-1.704;2023-07-16T04:54:34;40.15;;;13.63;;
60908;SDS011;46780;48.128;-1.704;2023-07-16T04:57:03;37.63;;;13.60;;
60908;SDS011;46780;48.128;-1.704;2023-07-16T04:59:30;44.22;;;14.70;;
60908;SDS011;46780;48.128;-1.704;2023-07-16T05:01:56;44.92;;;13.95;;
60908;SDS011;46780;48.128;-1.704;2023-07-16T05:04:23;41.88;;;13.68;;
60908;SDS011;46780;48.128;-1.704;2023-07-16T05:06:49;41.88;;;14.40;;
60908;SDS011;46780;48.128;-1.704;2023-07-16T05:09:17;42.10;;;14.07;;
60908;SDS011;46780;48.128;-1.704;2023-07-16T05:11:44;42.55;;;13.95;;
60908;SDS011;46780;48.128;-1.704;2023-07-16T05:14:11;46.10;;;14.27;;
60908;SDS011;46780;48.128;-1.704;2023-07-16T05:16:38;41.05;;;14.57;;
60908;SDS011;46780;48.128;-1.704;2023-07-16T05:19:04;42.80;;;14.27;;
60908;SDS011;46780;48.128;-1.704;2023-07-16T05:21:31;47.58;;;15.00;;
60908;SDS011;46780;48.128;-1.704;2023-07-16T05:23:57;40.95;;;15.43;;
60908;SDS011;46780;48.128;-1.704;2023-07-16T05:26:24;41.25;;;14.45;;
60908;SDS011;46780;48.128;-1.704;2023-07-16T05:28:50;41.88;;;15.00;;
60908;SDS011;46780;48.128;-1.704;2023-07-16T05:31:18;46.78;;;14.88;;
60908;SDS011;46780;48.128;-1.704;2023-07-16T05:33:45;41.95;;;15.35;;
60908;SDS011;46780;48.128;-1.704;2023-07-16T05:36:11;38.63;;;15.40;;
60908;SDS011;46780;48.128;-1.704;2023-07-16T05:38:38;42.45;;;15.18;;
60908;SDS011;46780;48.128;-1.704;2023-07-16T05:41:05;44.08;;;14.32;;
60908;SDS011;46780;48.128;-1.704;2023-07-16T05:43:31;50.70;;;14.85;;
60908;SDS011;46780;48.128;-1.704;2023-07-16T05:45:58;43.25;;;14.77;;
60908;SDS011;46780;48.128;-1.704;2023-07-16T05:48:26;41.42;;;14.77;;
60908;SDS011;46780;48.128;-1.704;2023-07-16T05:50:52;41.08;;;14.32;;
60908;SDS011;46780;48.128;-1.704;2023-07-16T05:53:19;45.35;;;15.40;;
60908;SDS011;46780;48.128;-1.704;2023-07-16T05:55:45;41.78;;;14.88;;
60908;SDS011;46780;48.128;-1.704;2023-07-16T05:58:11;43.38;;;15.00;;
60908;SDS011;46780;48.128;-1.704;2023-07-16T06:00:38;47.63;;;14.75;;
60908;SDS011;46780;48.128;-1.704;2023-07-16T06:03:04;46.88;;;15.13;;
60908;SDS011;46780;48.128;-1.704;2023-07-16T06:05:32;43.78;;;15.25;;
60908;SDS011;46780;48.128;-1.704;2023-07-16T06:07:59;40.35;;;14.27;;
60908;SDS011;46780;48.128;-1.704;2023-07-16T06:10:26;41.95;;;14.95;;
60908;SDS011;46780;48.128;-1.704;2023-07-16T06:12:52;44.50;;;15.25;;
60908;SDS011;46780;48.128;-1.704;2023-07-16T06:15:19;50.15;;;15.30;;
60908;SDS011;46780;48.128;-1.704;2023-07-16T06:17:46;44.67;;;13.98;;
60908;SDS011;46780;48.128;-1.704;2023-07-16T06:20:12;41.80;;;14.82;;
60908;SDS011;46780;48.128;-1.704;2023-07-16T06:22:40;39.22;;;15.23;;
60908;SDS011;46780;48.128;-1.704;2023-07-16T06:25:07;44.40;;;15.38;;
60908;SDS011;46780;48.128;-1.704;2023-07-16T06:27:34;42.65;;;15.25;;
60908;SDS011;46780;48.128;-1.704;2023-07-16T06:30:00;45.67;;;15.48;;
60908;SDS011;46780;48.128;-1.704;2023-07-16T06:32:27;41.78;;;14.60;;
60908;SDS011;46780;48.128;-1.704;2023-07-16T06:34:53;44.58;;;14.48;;
60908;SDS011;46780;48.128;-1.704;2023-07-16T06:37:20;39.67;;;14.70;;
60908;SDS011;46780;48.128;-1.704;2023-07-16T06:39:48;39.00;;;14.20;;
60908;SDS011;46780;48.128;-1.704;2023-07-16T06:42:14;40.60;;;14.05;;
60908;SDS011;46780;48.128;-1.704;2023-07-16T06:44:41;34.97;;;12.90;;
60908;SDS011;46780;48.128;-1.704;2023-07-16T06:47:07;44.00;;;14.02;;
60908;SDS011;46780;48.128;-1.704;2023-07-16T06:49:34;40.28;;;12.80;;
60908;SDS011;46780;48.128;-1.704;2023-07-16T06:52:00;34.15;;;12.93;;
60908;SDS011;46780;48.128;-1.704;2023-07-16T06:54:27;39.30;;;13.45;;
60908;SDS011;46780;48.128;-1.704;2023-07-16T06:56:54;38.10;;;12.82;;
60908;SDS011;46780;48.128;-1.704;2023-07-16T06:59:21;37.53;;;12.77;;
60908;SDS011;46780;48.128;-1.704;2023-07-16T07:01:47;38.95;;;13.13;;
60908;SDS011;46780;48.128;-1.704;2023-07-16T07:04:14;39.45;;;13.32;;
60908;SDS011;46780;48.128;-1.704;2023-07-16T07:06:40;35.67;;;13.35;;
60908;SDS011;46780;48.128;-1.704;2023-07-16T07:09:07;32.85;;;12.32;;
60908;SDS011;46780;48.128;-1.704;2023-07-16T07:11:33;34.08;;;12.43;;
60908;SDS011;46780;48.128;-1.704;2023-07-16T07:14:01;34.53;;;12.88;;
60908;SDS011;46780;48.128;-1.704;2023-07-16T07:16:27;37.55;;;12.82;;
60908;SDS011;46780;48.128;-1.704;2023-07-16T07:18:54;33.17;;;12.15;;
60908;SDS011;46780;48.128;-1.704;2023-07-16T07:21:20;28.88;;;10.48;;
60908;SDS011;46780;48.128;-1.704;2023-07-16T07:23:47;28.10;;;9.38;;
60908;SDS011;46780;48.128;-1.704;2023-07-16T07:26:13;31.58;;;9.27;;
60908;SDS011;46780;48.128;-1.704;2023-07-16T07:28:40;23.60;;;9.68;;
60908;SDS011;46780;48.128;-1.704;2023-07-16T07:31:08;28.23;;;9.85;;
60908;SDS011;46780;48.128;-1.704;2023-07-16T07:33:34;28.90;;;8.95;;
60908;SDS011;46780;48.128;-1.704;2023-07-16T07:36:01;24.45;;;8.80;;
60908;SDS011;46780;48.128;-1.704;2023-07-16T07:38:27;26.80;;;8.90;;
60908;SDS011;46780;48.128;-1.704;2023-07-16T07:40:53;24.00;;;8.05;;
60908;SDS011;46780;48.128;-1.704;2023-07-16T07:43:20;21.75;;;7.88;;
60908;SDS011;46780;48.128;-1.704;2023-07-16T07:45:46;24.92;;;7.70;;
60908;SDS011;46780;48.128;-1.704;2023-07-16T07:48:14;28.10;;;8.15;;
60908;SDS011;46780;48.128;-1.704;2023-07-16T07:50:41;21.88;;;7.55;;
60908;SDS011;46780;48.128;-1.704;2023-07-16T07:53:07;24.38;;;6.97;;
60908;SDS011;46780;48.128;-1.704;2023-07-16T07:55:33;20.05;;;6.40;;
60908;SDS011;46780;48.128;-1.704;2023-07-16T07:58:00;19.25;;;5.57;;
60908;SDS011;46780;48.128;-1.704;2023-07-16T08:00:27;20.90;;;5.82;;
60908;SDS011;46780;48.128;-1.704;2023-07-16T08:02:53;20.75;;;5.82;;
60908;SDS011;46780;48.128;-1.704;2023-07-16T08:05:21;19.15;;;5.18;;
60908;SDS011;46780;48.128;-1.704;2023-07-16T08:07:48;20.35;;;5.40;;
60908;SDS011;46780;48.128;-1.704;2023-07-16T08:10:14;15.38;;;4.68;;
60908;SDS011;46780;48.128;-1.704;2023-07-16T08:12:41;18.90;;;5.18;;
60908;SDS011;46780;48.128;-1.704;2023-07-16T08:15:08;16.10;;;5.57;;
60908;SDS011;46780;48.128;-1.704;2023-07-16T08:17:35;20.27;;;5.53;;
60908;SDS011;46780;48.128;-1.704;2023-07-16T08:20:02;19.52;;;5.90;;
60908;SDS011;46780;48.128;-1.704;2023-07-16T08:22:30;17.25;;;5.75;;
60908;SDS011;46780;48.128;-1.704;2023-07-16T08:24:57;18.08;;;5.45;;
60908;SDS011;46780;48.128;-1.704;2023-07-16T08:27:23;18.02;;;5.30;;
60908;SDS011;46780;48.128;-1.704;2023-07-16T08:29:50;17.48;;;4.88;;
60908;SDS011;46780;48.128;-1.704;2023-07-16T08:32:16;16.08;;;5.35;;
60908;SDS011;46780;48.128;-1.704;2023-07-16T08:34:43;15.55;;;5.18;;
60908;SDS011;46780;48.128;-1.704;2023-07-16T08:37:09;18.20;;;5.10;;
60908;SDS011;46780;48.128;-1.704;2023-07-16T08:39:37;22.38;;;5.18;;
60908;SDS011;46780;48.128;-1.704;2023-07-16T08:42:04;18.25;;;4.85;;
60908;SDS011;46780;48.128;-1.704;2023-07-16T08:44:31;19.75;;;5.43;;
60908;SDS011;46780;48.128;-1.704;2023-07-16T08:46:58;15.20;;;5.18;;
60908;SDS011;46780;48.128;-1.704;2023-07-16T08:49:25;17.02;;;5.40;;
60908;SDS011;46780;48.128;-1.704;2023-07-16T08:51:54;19.35;;;5.63;;
60908;SDS011;46780;48.128;-1.704;2023-07-16T08:54:21;21.67;;;5.85;;
60908;SDS011;46780;48.128;-1.704;2023-07-16T08:56:50;23.85;;;6.30;;
60908;SDS011;46780;48.128;-1.704;2023-07-16T08:59:17;22.88;;;6.63;;
60908;SDS011;46780;48.128;-1.704;2023-07-16T09:01:44;24.60;;;6.55;;
60908;SDS011;46780;48.128;-1.704;2023-07-16T09:04:12;21.92;;;5.80;;
60908;SDS011;46780;48.128;-1.704;2023-07-16T09:06:38;20.30;;;6.55;;
60908;SDS011;46780;48.128;-1.704;2023-07-16T09:09:05;24.50;;;6.65;;
60908;SDS011;46780;48.128;-1.704;2023-07-16T09:11:31;21.08;;;6.55;;
60908;SDS011;46780;48.128;-1.704;2023-07-16T09:14:02;17.85;;;5.97;;
60908;SDS011;46780;48.128;-1.704;2023-07-16T09:16:32;26.17;;;6.47;;
60908;SDS011;46780;48.128;-1.704;2023-07-16T09:19:04;20.35;;;6.25;;
60908;SDS011;46780;48.128;-1.704;2023-07-16T09:21:31;19.95;;;6.50;;
60908;SDS011;46780;48.128;-1.704;2023-07-16T09:23:58;23.02;;;6.25;;
60908;SDS011;46780;48.128;-1.704;2023-07-16T09:26:24;19.83;;;6.07;;
60908;SDS011;46780;48.128;-1.704;2023-07-16T09:28:51;20.83;;;6.63;;
60908;SDS011;46780;48.128;-1.704;2023-07-16T09:31:18;22.98;;;6.38;;
60908;SDS011;46780;48.128;-1.704;2023-07-16T09:33:46;21.63;;;6.55;;
60908;SDS011;46780;48.128;-1.704;2023-07-16T09:36:13;20.88;;;6.10;;
60908;SDS011;46780;48.128;-1.704;2023-07-16T09:38:39;19.88;;;6.22;;
60908;SDS011;46780;48.128;-1.704;2023-07-16T09:41:07;22.63;;;6.50;;
60908;SDS011;46780;48.128;-1.704;2023-07-16T09:43:33;19.38;;;5.95;;
60908;SDS011;46780;48.128;-1.704;2023-07-16T09:46:01;23.25;;;6.95;;
60908;SDS011;46780;48.128;-1.704;2023-07-16T09:48:29;22.65;;;6.20;;
60908;SDS011;46780;48.128;-1.704;2023-07-16T09:50:55;23.25;;;6.25;;
60908;SDS011;46780;48.128;-1.704;2023-07-16T09:53:22;19.02;;;6.18;;
60908;SDS011;46780;48.128;-1.704;2023-07-16T09:55:49;17.27;;;6.15;;
60908;SDS011;46780;48.128;-1.704;2023-07-16T09:58:18;22.02;;;6.28;;
60908;SDS011;46780;48.128;-1.704;2023-07-16T10:00:46;20.60;;;6.38;;
60908;SDS011;46780;48.128;-1.704;2023-07-16T10:03:14;20.98;;;6.68;;
60908;SDS011;46780;48.128;-1.704;2023-07-16T10:05:42;20.48;;;6.55;;
60908;SDS011;46780;48.128;-1.704;2023-07-16T10:08:15;19.35;;;6.38;;
60908;SDS011;46780;48.128;-1.704;2023-07-16T10:10:43;18.33;;;5.55;;
60908;SDS011;46780;48.128;-1.704;2023-07-16T10:13:11;17.13;;;5.35;;
60908;SDS011;46780;48.128;-1.704;2023-07-16T10:15:39;19.77;;;5.97;;
60908;SDS011;46780;48.128;-1.704;2023-07-16T10:18:22;17.15;;;5.85;;
60908;SDS011;46780;48.128;-1.704;2023-07-16T10:20:51;19.30;;;6.10;;
60908;SDS011;46780;48.128;-1.704;2023-07-16T10:23:18;17.75;;;5.93;;
60908;SDS011;46780;48.128;-1.704;2023-07-16T10:25:57;18.63;;;5.43;;
60908;SDS011;46780;48.128;-1.704;2023-07-16T10:28:24;17.50;;;6.30;;
60908;SDS011;46780;48.128;-1.704;2023-07-16T10:30:50;20.77;;;5.50;;
60908;SDS011;46780;48.128;-1.704;2023-07-16T10:33:17;19.88;;;5.70;;
60908;SDS011;46780;48.128;-1.704;2023-07-16T10:35:44;19.13;;;5.57;;
60908;SDS011;46780;48.128;-1.704;2023-07-16T10:38:12;14.10;;;5.07;;
60908;SDS011;46780;48.128;-1.704;2023-07-16T10:40:39;14.85;;;5.00;;
60908;SDS011;46780;48.128;-1.704;2023-07-16T10:43:06;15.95;;;5.07;;
60908;SDS011;46780;48.128;-1.704;2023-07-16T10:45:33;12.35;;;4.10;;
60908;SDS011;46780;48.128;-1.704;2023-07-16T10:47:59;11.98;;;3.15;;
60908;SDS011;46780;48.128;-1.704;2023-07-16T10:50:26;9.65;;;2.80;;
60908;SDS011;46780;48.128;-1.704;2023-07-16T10:52:53;9.73;;;2.53;;
60908;SDS011;46780;48.128;-1.704;2023-07-16T10:55:21;5.53;;;2.15;;
60908;SDS011;46780;48.128;-1.704;2023-07-16T10:57:48;10.00;;;3.10;;
60908;SDS011;46780;48.128;-1.704;2023-07-16T11:00:16;10.38;;;3.38;;
60908;SDS011;46780;48.128;-1.704;2023-07-16T11:02:43;9.77;;;3.33;;
60908;SDS011;46780;48.128;-1.704;2023-07-16T11:05:10;9.27;;;2.60;;
60908;SDS011;46780;48.128;-1.704;2023-07-16T11:07:37;9.25;;;3.13;;
60908;SDS011;46780;48.128;-1.704;2023-07-16T11:10:04;9.80;;;3.30;;
60908;SDS011;46780;48.128;-1.704;2023-07-16T11:12:32;9.38;;;2.97;;
60908;SDS011;46780;48.128;-1.704;2023-07-16T11:14:59;7.07;;;2.45;;
60908;SDS011;46780;48.128;-1.704;2023-07-16T11:17:25;7.53;;;2.20;;
60908;SDS011;46780;48.128;-1.704;2023-07-16T11:19:52;8.68;;;2.30;;
60908;SDS011;46780;48.128;-1.704;2023-07-16T11:22:19;10.68;;;2.13;;
60908;SDS011;46780;48.128;-1.704;2023-07-16T11:27:17;6.95;;;2.20;;
60908;SDS011;46780;48.128;-1.704;2023-07-16T11:29:46;9.32;;;2.50;;
60908;SDS011;46780;48.128;-1.704;2023-07-16T11:32:13;8.35;;;2.50;;
60908;SDS011;46780;48.128;-1.704;2023-07-16T11:34:51;10.48;;;2.97;;
60908;SDS011;46780;48.128;-1.704;2023-07-16T11:37:18;7.93;;;2.80;;
60908;SDS011;46780;48.128;-1.704;2023-07-16T11:39:45;9.65;;;3.85;;
60908;SDS011;46780;48.128;-1.704;2023-07-16T11:42:12;6.65;;;2.20;;
60908;SDS011;46780;48.128;-1.704;2023-07-16T11:44:38;5.55;;;1.92;;
60908;SDS011;46780;48.128;-1.704;2023-07-16T11:47:06;7.57;;;2.70;;
60908;SDS011;46780;48.128;-1.704;2023-07-16T11:49:33;8.07;;;2.00;;
60908;SDS011;46780;48.128;-1.704;2023-07-16T11:51:59;7.00;;;1.95;;
60908;SDS011;46780;48.128;-1.704;2023-07-16T11:54:25;7.85;;;2.17;;
60908;SDS011;46780;48.128;-1.704;2023-07-16T11:56:52;6.65;;;1.60;;
60908;SDS011;46780;48.128;-1.704;2023-07-16T11:59:18;6.10;;;1.77;;
60908;SDS011;46780;48.128;-1.704;2023-07-16T12:01:45;7.38;;;1.90;;
60908;SDS011;46780;48.128;-1.704;2023-07-16T12:04:13;7.50;;;1.90;;
60908;SDS011;46780;48.128;-1.704;2023-07-16T12:06:40;7.07;;;2.00;;
60908;SDS011;46780;48.128;-1.704;2023-07-16T12:09:06;7.25;;;1.80;;
60908;SDS011;46780;48.128;-1.704;2023-07-16T12:11:33;7.57;;;1.80;;
60908;SDS011;46780;48.128;-1.704;2023-07-16T12:13:59;5.70;;;1.40;;
60908;SDS011;46780;48.128;-1.704;2023-07-16T12:16:26;6.15;;;1.48;;
60908;SDS011;46780;48.128;-1.704;2023-07-16T12:18:52;7.38;;;1.80;;
60908;SDS011;46780;48.128;-1.704;2023-07-16T12:21:20;6.22;;;1.52;;
60908;SDS011;46780;48.128;-1.704;2023-07-16T12:23:46;7.05;;;1.70;;
60908;SDS011;46780;48.128;-1.704;2023-07-16T12:26:13;9.15;;;2.00;;
60908;SDS011;46780;48.128;-1.704;2023-07-16T12:28:40;6.80;;;1.67;;
60908;SDS011;46780;48.128;-1.704;2023-07-16T12:31:06;7.70;;;1.92;;
60908;SDS011;46780;48.128;-1.704;2023-07-16T12:33:33;6.07;;;1.90;;
60908;SDS011;46780;48.128;-1.704;2023-07-16T12:35:59;7.28;;;2.10;;
60908;SDS011;46780;48.128;-1.704;2023-07-16T12:38:27;10.68;;;2.20;;
60908;SDS011;46780;48.128;-1.704;2023-07-16T12:40:54;7.93;;;2.00;;
60908;SDS011;46780;48.128;-1.704;2023-07-16T12:43:20;9.05;;;2.10;;
60908;SDS011;46780;48.128;-1.704;2023-07-16T12:45:46;6.05;;;1.88;;
60908;SDS011;46780;48.128;-1.704;2023-07-16T12:48:13;9.52;;;2.00;;
60908;SDS011;46780;48.128;-1.704;2023-07-16T12:50:39;8.43;;;2.30;;
60908;SDS011;46780;48.128;-1.704;2023-07-16T12:53:06;7.45;;;2.03;;
60908;SDS011;46780;48.128;-1.704;2023-07-16T12:55:34;8.60;;;2.10;;
60908;SDS011;46780;48.128;-1.704;2023-07-16T12:58:00;9.05;;;2.30;;
60908;SDS011;46780;48.128;-1.704;2023-07-16T13:00:27;8.35;;;2.60;;
60908;SDS011;46780;48.128;-1.704;2023-07-16T13:02:53;10.43;;;2.58;;
60908;SDS011;46780;48.128;-1.704;2023-07-16T13:05:19;7.78;;;2.50;;
60908;SDS011;46780;48.128;-1.704;2023-07-16T13:07:46;7.78;;;2.33;;
60908;SDS011;46780;48.128;-1.704;2023-07-16T13:10:12;9.52;;;2.60;;
60908;SDS011;46780;48.128;-1.704;2023-07-16T13:12:40;7.38;;;2.60;;
60908;SDS011;46780;48.128;-1.704;2023-07-16T13:15:07;12.85;;;2.55;;
60908;SDS011;46780;48.128;-1.704;2023-07-16T13:17:34;11.10;;;2.50;;
60908;SDS011;46780;48.128;-1.704;2023-07-16T13:20:00;9.45;;;2.40;;
60908;SDS011;46780;48.128;-1.704;2023-07-16T13:22:27;9.57;;;2.78;;
60908;SDS011;46780;48.128;-1.704;2023-07-16T13:24:53;11.73;;;2.70;;
60908;SDS011;46780;48.128;-1.704;2023-07-16T13:27:20;10.68;;;2.45;;
60908;SDS011;46780;48.128;-1.704;2023-07-16T13:29:48;9.77;;;2.92;;
60908;SDS011;46780;48.128;-1.704;2023-07-16T13:32:15;8.90;;;2.55;;
60908;SDS011;46780;48.128;-1.704;2023-07-16T13:34:41;10.73;;;2.88;;
60908;SDS011;46780;48.128;-1.704;2023-07-16T13:37:08;13.80;;;2.88;;
60908;SDS011;46780;48.128;-1.704;2023-07-16T13:39:35;10.18;;;2.67;;
60908;SDS011;46780;48.128;-1.704;2023-07-16T13:42:02;12.35;;;3.08;;
60908;SDS011;46780;48.128;-1.704;2023-07-16T13:44:29;10.10;;;3.20;;
60908;SDS011;46780;48.128;-1.704;2023-07-16T13:46:57;10.32;;;3.40;;
60908;SDS011;46780;48.128;-1.704;2023-07-16T13:49:23;12.07;;;3.30;;
60908;SDS011;46780;48.128;-1.704;2023-07-16T13:51:50;12.70;;;3.63;;
60908;SDS011;46780;48.128;-1.704;2023-07-16T13:54:16;10.05;;;3.38;;
60908;SDS011;46780;48.128;-1.704;2023-07-16T13:56:43;12.13;;;3.60;;
60908;SDS011;46780;48.128;-1.704;2023-07-16T13:59:09;11.65;;;3.80;;
60908;SDS011;46780;48.128;-1.704;2023-07-16T14:01:37;12.00;;;4.30;;
60908;SDS011;46780;48.128;-1.704;2023-07-16T14:04:06;14.45;;;4.22;;
60908;SDS011;46780;48.128;-1.704;2023-07-16T14:06:33;13.80;;;4.43;;
60908;SDS011;46780;48.128;-1.704;2023-07-16T14:08:59;12.85;;;4.85;;
60908;SDS011;46780;48.128;-1.704;2023-07-16T14:11:26;16.20;;;4.85;;
60908;SDS011;46780;48.128;-1.704;2023-07-16T14:13:52;16.83;;;5.05;;
60908;SDS011;46780;48.128;-1.704;2023-07-16T14:16:19;13.75;;;5.22;;
60908;SDS011;46780;48.128;-1.704;2023-07-16T14:18:48;11.98;;;4.93;;
60908;SDS011;46780;48.128;-1.704;2023-07-16T14:23:44;16.48;;;5.20;;